createdAt,value
2019-05-02T00:00:13.744Z,31.47
2019-05-02T00:02:45.058Z,36.67
2019-05-02T00:05:18.307Z,30.43
2019-05-02T00:07:49.128Z,34.83
2019-05-02T00:10:24.868Z,35.07
2019-05-02T00:12:57.451Z,32.40
2019-05-02T00:15:28.260Z,33.77
2019-05-02T00:18:01.393Z,39.10
2019-05-02T00:20:37.896Z,40.60
2019-05-02T00:23:08.791Z,39.10
2019-05-02T00:25:40.676Z,37.13
2019-05-02T00:28:13.990Z,33.37
2019-05-02T00:30:50.011Z,30.27
2019-05-02T00:33:22.643Z,32.10
2019-05-02T00:35:54.736Z,29.57
2019-05-02T00:38:25.379Z,37.47
2019-05-02T00:41:01.772Z,34.00
2019-05-02T00:43:37.021Z,37.50
2019-05-02T00:46:11.234Z,35.93
2019-05-02T00:48:54.040Z,38.80
2019-05-02T00:51:26.709Z,32.97
2019-05-02T00:53:58.382Z,32.13
2019-05-02T00:56:28.981Z,43.73
2019-05-02T00:59:02.413Z,42.60
2019-05-02T01:01:51.577Z,36.87
2019-05-02T01:04:35.319Z,35.87
2019-05-02T01:07:07.750Z,37.40
2019-05-02T01:09:42.316Z,39.97
2019-05-02T01:12:25.176Z,37.37
2019-05-02T01:14:45.669Z,32.27
2019-05-02T01:17:16.467Z,31.13
2019-05-02T01:19:53.300Z,32.83
2019-05-02T01:22:24.089Z,34.40
2019-05-02T01:24:55.937Z,37.63
2019-05-02T01:27:35.943Z,35.87
2019-05-02T01:30:28.485Z,39.07
2019-05-02T01:33:18.215Z,34.50
2019-05-02T01:36:24.327Z,47.77
2019-05-02T01:38:55.410Z,33.20
2019-05-02T01:41:29.360Z,33.33
2019-05-02T01:44:01.504Z,40.33
2019-05-02T01:46:32.367Z,45.50
2019-05-02T01:49:05.556Z,39.27
2019-05-02T01:51:47.781Z,41.40
2019-05-02T01:54:17.843Z,36.47
2019-05-02T01:56:49.681Z,38.20
2019-05-02T01:59:21.717Z,41.23
2019-05-02T02:01:58.024Z,40.03
2019-05-02T02:04:28.123Z,33.83
2019-05-02T02:07:00.056Z,31.63
2019-05-02T02:09:30.737Z,33.90
2019-05-02T02:12:04.896Z,36.43
2019-05-02T02:14:34.255Z,44.63
2019-05-02T02:17:04.957Z,38.40
2019-05-02T02:19:48.024Z,32.97
2019-05-02T02:22:39.150Z,36.93
2019-05-02T02:25:48.204Z,39.57
2019-05-02T02:28:18.765Z,36.20
2019-05-02T02:30:49.560Z,38.30
2019-05-02T02:33:24.377Z,41.73
2019-05-02T02:35:55.442Z,38.40
2019-05-02T02:38:32.894Z,32.40
2019-05-02T02:41:13.224Z,36.43
2019-05-02T02:43:39.937Z,40.33
2019-05-02T02:46:37.879Z,40.83
2019-05-02T02:49:14.229Z,51.63
2019-05-02T02:51:41.745Z,39.07
2019-05-02T02:54:13.646Z,39.07
2019-05-02T02:56:44.475Z,38.47
2019-05-02T02:59:19.378Z,40.43
2019-05-02T03:01:51.229Z,35.03
2019-05-02T03:04:23.138Z,39.37
2019-05-02T03:06:54.809Z,38.10
2019-05-02T03:09:28.942Z,37.17
2019-05-02T03:12:18.173Z,50.07
2019-05-02T03:14:53.749Z,40.10
2019-05-02T03:17:28.696Z,40.57
2019-05-02T03:20:01.826Z,41.00
2019-05-02T03:22:35.009Z,41.57
2019-05-02T03:25:06.780Z,43.50
2019-05-02T03:27:40.503Z,37.43
2019-05-02T03:30:29.230Z,37.13
2019-05-02T03:33:03.606Z,38.97
2019-05-02T03:35:40.198Z,34.97
2019-05-02T03:37:59.182Z,54.93
2019-05-02T03:40:38.934Z,41.60
2019-05-02T03:43:11.545Z,44.67
2019-05-02T03:45:43.297Z,50.33
2019-05-02T03:48:18.320Z,40.27
2019-05-02T03:50:49.783Z,40.23
2019-05-02T03:53:25.957Z,43.73
2019-05-02T03:56:10.835Z,40.70
2019-05-02T03:58:32.699Z,44.80
2019-05-02T04:01:04.006Z,48.00
2019-05-02T04:03:41.161Z,39.43
2019-05-02T04:06:14.049Z,55.93
2019-05-02T04:08:45.537Z,42.63
2019-05-02T04:11:37.961Z,42.00
2019-05-02T04:13:59.657Z,39.93
2019-05-02T04:16:32.590Z,43.30
2019-05-02T04:19:07.523Z,39.00
2019-05-02T04:21:39.707Z,36.60
2019-05-02T04:24:15.673Z,45.77
2019-05-02T04:26:53.529Z,42.87
2019-05-02T04:29:24.513Z,40.93
2019-05-02T04:31:51.888Z,45.33
2019-05-02T04:34:23.774Z,49.50
2019-05-02T04:37:01.554Z,39.73
2019-05-02T04:39:28.637Z,52.63
2019-05-02T04:42:05.503Z,44.63
2019-05-02T04:44:40.875Z,49.10
2019-05-02T04:47:17.104Z,44.10
2019-05-02T04:49:41.329Z,49.20
2019-05-02T04:52:16.607Z,46.87
2019-05-02T04:54:48.794Z,46.63
2019-05-02T04:57:19.335Z,53.40
2019-05-02T05:00:05.004Z,43.70
2019-05-02T05:02:34.175Z,43.30
2019-05-02T05:04:58.112Z,53.30
2019-05-02T05:07:31.049Z,52.30
2019-05-02T05:10:03.357Z,48.20
2019-05-02T05:12:38.049Z,45.33
2019-05-02T05:15:13.380Z,53.90
2019-05-02T05:17:42.431Z,48.10
2019-05-02T05:20:15.786Z,56.70
2019-05-02T05:22:48.001Z,74.73
2019-05-02T05:25:28.682Z,55.70
2019-05-02T05:28:05.655Z,54.53
2019-05-02T05:30:31.999Z,56.70
2019-05-02T05:33:03.648Z,60.57
2019-05-02T05:35:38.409Z,51.03
2019-05-02T05:38:08.752Z,62.13
2019-05-02T05:40:39.387Z,54.20
2019-05-02T05:43:14.389Z,55.57
2019-05-02T05:45:56.401Z,48.20
2019-05-02T05:48:32.153Z,49.80
2019-05-02T05:51:04.225Z,58.50
2019-05-02T05:53:34.845Z,45.17
2019-05-02T05:56:07.782Z,50.90
2019-05-02T05:58:39.799Z,59.97
2019-05-02T06:01:10.782Z,53.93
2019-05-02T06:03:44.976Z,65.47
2019-05-02T06:06:22.774Z,54.57
2019-05-02T06:08:54.147Z,53.00
2019-05-02T06:11:22.696Z,51.63
2019-05-02T06:13:54.663Z,51.57
2019-05-02T06:16:25.415Z,50.93
2019-05-02T06:18:56.225Z,53.70
2019-05-02T06:21:32.098Z,44.43
2019-05-02T06:24:03.028Z,45.40
2019-05-02T06:26:33.664Z,50.40
2019-05-02T06:29:07.686Z,50.00
2019-05-02T06:31:42.980Z,55.63
2019-05-02T06:34:14.665Z,54.97
2019-05-02T06:36:44.409Z,63.30
2019-05-02T06:39:15.462Z,55.77
2019-05-02T06:41:46.399Z,51.37
2019-05-02T06:44:23.214Z,56.37
2019-05-02T06:46:50.627Z,54.93
2019-05-02T06:49:27.484Z,57.67
2019-05-02T06:51:58.202Z,67.13
2019-05-02T06:54:30.342Z,50.63
2019-05-02T06:57:03.053Z,53.37
2019-05-02T06:59:39.853Z,53.50
2019-05-02T07:02:10.619Z,66.37
2019-05-02T07:04:41.397Z,66.30
2019-05-02T07:07:15.904Z,73.63
2019-05-02T07:09:46.987Z,56.57
2019-05-02T07:12:17.880Z,61.23
2019-05-02T07:14:48.788Z,72.37
2019-05-02T07:17:39.937Z,61.80
2019-05-02T07:20:12.242Z,59.83
2019-05-02T07:22:45.439Z,65.67
2019-05-02T07:25:18.568Z,58.97
2019-05-02T07:27:49.463Z,66.80
2019-05-02T07:30:20.754Z,66.70
2019-05-02T07:32:51.335Z,63.87
2019-05-02T07:35:24.397Z,64.90
2019-05-02T07:37:56.994Z,66.93
2019-05-02T07:40:28.947Z,61.83
2019-05-02T07:43:00.838Z,80.17
2019-05-02T07:45:32.485Z,84.80
2019-05-02T07:48:04.474Z,120.23
2019-05-02T07:50:35.150Z,76.20
2019-05-02T07:53:09.587Z,77.23
2019-05-02T07:55:40.588Z,79.33
2019-05-02T07:58:20.804Z,66.60
2019-05-02T08:00:51.601Z,74.20
2019-05-02T08:03:23.473Z,69.40
2019-05-02T08:05:58.558Z,71.23
2019-05-02T08:08:31.888Z,72.17
2019-05-02T08:11:03.905Z,77.17
2019-05-02T08:13:34.703Z,83.57
2019-05-02T08:16:05.540Z,69.17
2019-05-02T08:18:36.159Z,79.97
2019-05-02T08:21:08.114Z,69.87
2019-05-02T08:23:38.666Z,75.03
2019-05-02T08:26:09.693Z,73.10
2019-05-02T08:28:53.286Z,67.33
2019-05-02T08:31:25.004Z,61.80
2019-05-02T08:33:56.910Z,76.33
2019-05-02T08:36:27.705Z,70.10
2019-05-02T08:38:58.427Z,61.50
2019-05-02T08:41:30.399Z,61.17
2019-05-02T08:44:01.104Z,77.57
2019-05-02T08:46:31.853Z,65.17
2019-05-02T08:49:02.538Z,61.20
2019-05-02T08:51:33.424Z,74.67
2019-05-02T08:54:04.177Z,57.83
2019-05-02T08:56:35.048Z,52.80
2019-05-02T08:59:05.901Z,47.77
2019-05-02T09:01:37.953Z,45.80
2019-05-02T09:04:09.778Z,49.93
2019-05-02T09:06:47.658Z,48.80
2019-05-02T09:09:22.809Z,37.70
2019-05-02T09:12:04.826Z,44.87
2019-05-02T09:14:27.540Z,43.97
2019-05-02T09:17:06.063Z,41.50
2019-05-02T09:19:34.997Z,50.63
2019-05-02T09:22:07.491Z,40.70
2019-05-02T09:24:38.259Z,36.93
2019-05-02T09:27:12.091Z,47.20
2019-05-02T09:29:45.888Z,44.07
2019-05-02T09:32:17.059Z,45.70
2019-05-02T09:34:51.707Z,42.50
2019-05-02T09:37:28.357Z,37.10
2019-05-02T09:40:02.234Z,41.93
2019-05-02T09:42:36.008Z,38.90
2019-05-02T09:45:22.719Z,40.47
2019-05-02T09:48:01.579Z,49.53
2019-05-02T09:50:42.267Z,39.73
2019-05-02T09:53:20.878Z,40.00
2019-05-02T09:55:50.283Z,35.70
2019-05-02T09:58:21.395Z,43.07
2019-05-02T10:01:11.913Z,45.83
2019-05-02T10:03:42.983Z,47.70
2019-05-02T10:06:36.500Z,45.37
2019-05-02T10:08:49.274Z,43.33
2019-05-02T10:11:22.471Z,44.70
2019-05-02T10:13:55.483Z,39.77
2019-05-02T10:16:28.473Z,39.10
2019-05-02T10:19:08.911Z,42.03
2019-05-02T10:21:32.756Z,41.60
2019-05-02T10:24:04.263Z,42.17
2019-05-02T10:26:37.939Z,42.77
2019-05-02T10:29:08.771Z,43.27
2019-05-02T10:31:45.515Z,44.70
2019-05-02T10:34:17.831Z,37.80
2019-05-02T10:36:54.283Z,54.43
2019-05-02T10:39:23.410Z,45.30
2019-05-02T10:41:57.447Z,49.07
2019-05-02T10:44:32.597Z,43.17
2019-05-02T10:47:02.904Z,34.17
2019-05-02T10:49:40.124Z,49.13
2019-05-02T10:52:12.203Z,41.80
2019-05-02T10:54:44.275Z,46.40
2019-05-02T10:57:16.228Z,59.60
2019-05-02T10:59:56.120Z,48.60
2019-05-02T11:02:45.211Z,40.53
2019-05-02T11:05:22.574Z,49.87
2019-05-02T11:07:52.322Z,41.87
2019-05-02T11:10:28.174Z,47.13
2019-05-02T11:13:23.911Z,43.87
2019-05-02T11:16:23.106Z,41.37
2019-05-02T11:19:13.252Z,41.07
2019-05-02T11:21:55.436Z,41.80
2019-05-02T11:24:17.870Z,36.33
2019-05-02T11:26:48.604Z,50.85
2019-05-02T11:29:19.147Z,43.10
2019-05-02T11:31:53.163Z,48.93
2019-05-02T11:34:24.134Z,45.10
2019-05-02T11:36:55.018Z,39.87
2019-05-02T11:39:33.511Z,37.50
2019-05-02T11:42:02.131Z,41.87
2019-05-02T11:44:47.770Z,45.30
2019-05-02T11:47:26.679Z,37.00
2019-05-02T11:50:06.858Z,38.70
2019-05-02T11:52:39.546Z,41.70
2019-05-02T11:55:12.954Z,33.00
2019-05-02T11:57:52.348Z,35.17
2019-05-02T12:00:27.601Z,33.33
2019-05-02T12:03:16.030Z,39.50
2019-05-02T12:06:02.073Z,32.93
2019-05-02T12:08:45.120Z,39.70
2019-05-02T12:11:22.851Z,33.63
2019-05-02T12:13:57.050Z,28.60
2019-05-02T12:16:37.998Z,27.23
2019-05-02T12:19:17.627Z,31.73
2019-05-02T12:22:07.114Z,21.27
2019-05-02T12:24:46.562Z,22.93
2019-05-02T12:27:26.696Z,19.93
2019-05-02T12:29:59.378Z,16.00
2019-05-02T12:32:30.753Z,16.87
2019-05-02T12:35:02.561Z,23.17
2019-05-02T12:37:34.513Z,24.83
2019-05-02T12:40:08.078Z,25.40
2019-05-02T12:42:41.864Z,20.13
2019-05-02T12:45:22.029Z,22.43
2019-05-02T12:47:55.914Z,24.57
2019-05-02T12:50:32.293Z,24.10
2019-05-02T12:53:12.400Z,27.97
2019-05-02T12:55:50.061Z,32.83
2019-05-02T12:58:21.885Z,23.30
2019-05-02T13:00:58.810Z,20.90
2019-05-02T13:03:58.960Z,21.50
2019-05-02T13:06:37.069Z,28.30
2019-05-02T13:09:13.364Z,24.57
2019-05-02T13:12:07.557Z,29.50
2019-05-02T13:14:44.057Z,21.87
2019-05-02T13:17:16.283Z,162.60
2019-05-02T13:19:55.810Z,23.73
2019-05-02T13:22:47.224Z,25.07
2019-05-02T13:25:32.785Z,35.07
2019-05-02T13:28:03.899Z,31.10
2019-05-02T13:30:51.783Z,21.07
2019-05-02T13:33:35.812Z,27.27
2019-05-02T13:36:06.735Z,18.07
2019-05-02T13:38:43.524Z,21.80
2019-05-02T13:41:15.586Z,21.37
2019-05-02T13:43:48.331Z,19.50
2019-05-02T13:46:22.349Z,13.63
2019-05-02T13:48:53.379Z,22.43
2019-05-02T13:51:25.289Z,26.80
2019-05-02T13:54:02.246Z,18.20
2019-05-02T13:56:52.421Z,18.77
2019-05-02T13:59:23.226Z,21.10
2019-05-02T14:02:02.792Z,16.60
2019-05-02T14:04:34.287Z,26.30
2019-05-02T14:07:07.571Z,18.77
2019-05-02T14:09:44.160Z,26.23
2019-05-02T14:12:42.971Z,16.40
2019-05-02T14:15:15.212Z,17.97
2019-05-02T14:17:47.161Z,15.47
2019-05-02T14:20:22.569Z,20.17
2019-05-02T14:22:53.568Z,16.53
2019-05-02T14:25:24.417Z,17.10
2019-05-02T14:27:55.757Z,25.33
2019-05-02T14:30:37.294Z,16.30
2019-05-02T14:33:13.788Z,18.50
2019-05-02T14:35:46.662Z,20.90
2019-05-02T14:38:17.574Z,24.97
2019-05-02T14:41:14.300Z,21.70
2019-05-02T14:43:55.918Z,20.77
2019-05-02T14:46:35.530Z,19.00
2019-05-02T14:49:02.948Z,24.90
2019-05-02T14:51:37.246Z,22.30
2019-05-02T14:54:08.955Z,32.87
2019-05-02T14:57:02.102Z,25.27
2019-05-02T14:59:34.116Z,28.47
2019-05-02T15:02:09.048Z,24.37
2019-05-02T15:04:46.328Z,38.40
2019-05-02T15:07:13.008Z,28.30
2019-05-02T15:09:43.923Z,26.67
2019-05-02T15:12:18.874Z,23.57
2019-05-02T15:14:49.739Z,23.20
2019-05-02T15:17:22.722Z,24.40
2019-05-02T15:19:54.615Z,24.23
2019-05-02T15:22:31.842Z,25.77
2019-05-02T15:25:02.680Z,28.17
2019-05-02T15:27:41.921Z,24.20
2019-05-02T15:30:12.445Z,26.13
2019-05-02T15:32:58.981Z,23.53
2019-05-02T15:35:42.592Z,18.30
2019-05-02T15:38:20.843Z,18.20
2019-05-02T15:40:50.470Z,16.23
2019-05-02T15:43:19.618Z,15.73
2019-05-02T15:45:52.665Z,12.30
2019-05-02T15:48:27.516Z,18.13
2019-05-02T15:51:05.030Z,14.60
2019-05-02T15:53:48.259Z,15.03
2019-05-02T15:56:20.056Z,15.63
2019-05-02T15:58:52.394Z,12.87
2019-05-02T16:01:52.465Z,11.43
2019-05-02T16:04:29.392Z,12.17
2019-05-02T16:07:06.967Z,11.10
2019-05-02T16:09:33.700Z,13.53
2019-05-02T16:12:06.236Z,13.90
2019-05-02T16:14:37.254Z,11.07
2019-05-02T16:17:09.358Z,10.70
2019-05-02T16:19:45.238Z,13.97
2019-05-02T16:22:19.917Z,28.33
2019-05-02T16:24:51.449Z,11.13
2019-05-02T16:27:44.269Z,14.50
2019-05-02T16:30:22.394Z,12.47
2019-05-02T16:33:02.482Z,17.40
2019-05-02T16:35:34.184Z,15.67
2019-05-02T16:38:09.135Z,14.47
2019-05-02T16:40:41.890Z,16.10
2019-05-02T16:43:19.731Z,11.03
2019-05-02T16:45:52.567Z,13.30
2019-05-02T16:48:25.354Z,11.33
2019-05-02T16:50:56.318Z,13.20
2019-05-02T16:53:27.194Z,11.50
2019-05-02T16:56:05.474Z,17.03
2019-05-02T16:58:37.997Z,13.87
2019-05-02T17:01:06.637Z,13.73
2019-05-02T17:03:37.442Z,10.30
2019-05-02T17:06:08.179Z,14.20
2019-05-02T17:08:58.514Z,12.30
2019-05-02T17:11:37.085Z,13.87
2019-05-02T17:14:13.559Z,18.70
2019-05-02T17:16:52.354Z,13.83
2019-05-02T17:19:31.382Z,17.60
2019-05-02T17:22:02.472Z,15.63
2019-05-02T17:24:32.860Z,13.20
2019-05-02T17:27:07.205Z,15.80
2019-05-02T17:29:44.185Z,19.00
2019-05-02T17:32:16.675Z,15.50
2019-05-02T17:34:47.761Z,15.70
2019-05-02T17:37:24.512Z,17.77
2019-05-02T17:39:56.570Z,17.47
2019-05-02T17:42:27.227Z,15.83
2019-05-02T17:45:01.708Z,18.07
2019-05-02T17:47:35.581Z,18.87
2019-05-02T17:50:15.596Z,17.20
2019-05-02T17:52:45.639Z,15.00
2019-05-02T17:55:18.663Z,15.17
2019-05-02T17:57:51.631Z,18.53
2019-05-02T18:00:30.611Z,18.50
2019-05-02T18:03:02.606Z,14.60
2019-05-02T18:05:35.787Z,16.60
2019-05-02T18:08:10.717Z,16.83
2019-05-02T18:10:41.901Z,19.83
2019-05-02T18:13:12.985Z,17.33
2019-05-02T18:15:46.961Z,16.50
2019-05-02T18:18:18.927Z,16.83
2019-05-02T18:20:52.724Z,36.07
2019-05-02T18:23:27.628Z,24.70
2019-05-02T18:26:04.432Z,22.90
2019-05-02T18:28:31.777Z,24.60
2019-05-02T18:31:05.721Z,19.27
2019-05-02T18:33:40.965Z,24.43
2019-05-02T18:36:09.725Z,25.57
2019-05-02T18:38:41.718Z,20.33
2019-05-02T18:41:14.045Z,23.40
2019-05-02T18:43:45.907Z,27.30
2019-05-02T18:46:19.944Z,21.07
2019-05-02T18:48:51.870Z,25.53
2019-05-02T18:51:23.070Z,19.23
2019-05-02T18:53:57.860Z,17.73
2019-05-02T18:56:35.601Z,16.37
2019-05-02T18:59:06.115Z,16.80
2019-05-02T19:01:38.352Z,14.63
2019-05-02T19:04:13.271Z,14.00
2019-05-02T19:06:48.404Z,10.37
2019-05-02T19:09:30.454Z,8.37
2019-05-02T19:12:05.908Z,10.60
2019-05-02T19:14:43.702Z,7.87
2019-05-02T19:17:26.685Z,9.50
2019-05-02T19:19:58.507Z,9.80
2019-05-02T19:22:32.203Z,11.43
2019-05-02T19:25:04.462Z,15.80
2019-05-02T19:28:04.409Z,8.23
2019-05-02T19:30:51.966Z,9.53
2019-05-02T19:33:25.877Z,8.60
2019-05-02T19:35:56.568Z,7.27
2019-05-02T19:38:27.324Z,6.93
2019-05-02T19:41:18.786Z,6.30
2019-05-02T19:44:02.337Z,8.13
2019-05-02T19:46:38.611Z,8.30
2019-05-02T19:49:16.287Z,5.33
2019-05-02T19:51:56.324Z,5.97
2019-05-02T19:54:33.542Z,6.50
2019-05-02T19:56:59.761Z,8.10
2019-05-02T19:59:32.172Z,5.53
2019-05-02T20:02:11.891Z,8.63
2019-05-02T20:04:58.227Z,7.23
2019-05-02T20:07:35.976Z,6.70
2019-05-02T20:10:07.032Z,9.70
2019-05-02T20:12:40.904Z,4.20
2019-05-02T20:15:17.021Z,4.63
2019-05-02T20:17:55.338Z,6.50
2019-05-02T20:21:23.156Z,8.13
2019-05-02T20:23:55.292Z,8.10
2019-05-02T20:26:35.484Z,5.50
2019-05-02T20:29:12.382Z,6.10
2019-05-02T20:31:45.131Z,4.50
2019-05-02T20:34:17.892Z,5.17
2019-05-02T20:36:51.817Z,5.63
2019-05-02T20:39:27.119Z,3.73
2019-05-02T20:42:19.863Z,4.73
2019-05-02T20:44:52.795Z,8.63
2019-05-02T20:47:27.244Z,7.50
2019-05-02T20:49:59.180Z,5.20
2019-05-02T20:52:29.875Z,5.23
2019-05-02T20:55:05.032Z,5.13
2019-05-02T20:57:59.099Z,4.70
2019-05-02T21:00:48.102Z,4.43
2019-05-02T21:03:19.938Z,4.97
2019-05-02T21:06:37.548Z,4.67
2019-05-02T21:09:24.236Z,5.93
2019-05-02T21:12:02.047Z,4.07
2019-05-02T21:14:34.129Z,4.97
2019-05-02T21:17:06.238Z,8.00
2019-05-02T21:19:38.142Z,5.37
2019-05-02T21:22:24.175Z,7.53
2019-05-02T21:24:55.114Z,6.03
2019-05-02T21:27:25.972Z,4.97
2019-05-02T21:30:06.645Z,6.27
2019-05-02T21:32:40.379Z,6.40
2019-05-02T21:35:14.871Z,5.20
2019-05-02T21:37:55.911Z,3.90
2019-05-02T21:40:26.585Z,6.53
2019-05-02T21:43:02.458Z,5.83
2019-05-02T21:45:36.646Z,4.77
2019-05-02T21:48:07.275Z,5.10
2019-05-02T21:50:52.436Z,4.90
2019-05-02T21:53:55.001Z,5.70
2019-05-02T21:56:26.638Z,3.93
2019-05-02T21:59:07.366Z,6.57
2019-05-02T22:01:47.226Z,6.43
2019-05-02T22:04:18.282Z,4.80
2019-05-02T22:06:52.244Z,5.90
2019-05-02T22:09:24.503Z,3.63
2019-05-02T22:11:55.292Z,5.30
2019-05-02T22:14:27.150Z,15.13
2019-05-02T22:16:58.773Z,3.60
2019-05-02T22:19:29.509Z,3.20
2019-05-02T22:22:02.332Z,4.53
2019-05-02T22:24:33.110Z,4.17
2019-05-02T22:27:05.499Z,3.90
2019-05-02T22:29:43.011Z,5.17
2019-05-02T22:32:22.622Z,6.50
2019-05-02T22:35:01.862Z,4.83
2019-05-02T22:37:32.983Z,9.13
2019-05-02T22:40:07.492Z,6.27
2019-05-02T22:42:47.690Z,4.53
2019-05-02T22:45:24.328Z,4.40
2019-05-02T22:48:02.629Z,4.67
2019-05-02T22:50:38.499Z,4.20
2019-05-02T22:53:12.023Z,4.27
2019-05-02T22:55:42.591Z,5.80
2019-05-02T22:58:21.785Z,4.90
2019-05-02T23:00:52.526Z,7.07
2019-05-02T23:03:24.212Z,6.50
2019-05-02T23:05:54.841Z,6.53
2019-05-02T23:08:26.734Z,5.27
2019-05-02T23:11:05.533Z,6.57
2019-05-02T23:13:56.834Z,5.93
2019-05-02T23:16:27.705Z,7.00
2019-05-02T23:19:02.790Z,6.33
2019-05-02T23:21:42.375Z,5.10
2019-05-02T23:24:36.384Z,5.77
2019-05-02T23:27:17.237Z,5.17
2019-05-02T23:29:51.954Z,6.60
2019-05-02T23:32:23.950Z,5.90
2019-05-02T23:34:54.675Z,4.97
2019-05-02T23:37:32.632Z,8.93
2019-05-02T23:40:19.326Z,6.60
2019-05-02T23:42:52.430Z,5.50
2019-05-02T23:45:27.220Z,8.53
2019-05-02T23:48:05.119Z,5.50
2019-05-02T23:50:36.903Z,5.13
2019-05-02T23:53:07.519Z,5.03
2019-05-02T23:55:43.409Z,4.23
2019-05-02T23:58:14.082Z,5.57
